Terminal Aerodrome Forecast
Issued by NWS Duluth, MN

Home | Current Version | Previous Version | Text Only | Print | Product List | Glossary On
Versions: 1 2 3 4 5 6 7 8 9 10 11 12 13 14 15 16 17 18 19 20 21 22 23 24 25 26
300
FTUS43 KDLH 292350
TAFDLH
TAF
KDLH 292350Z 3000/3024 30012G22KT P6SM VCSH BKN024 OVC040
      TEMPO 3000/3001 SCT025 BKN040
     FM300100 29009KT P6SM SCT025 BKN040
     FM300600 29009KT P6SM VCSH BKN025
     FM301100 29011KT P6SM VCSH BKN012
     FM301600 29012G22KT P6SM BKN015=

USA.gov is the U.S. government's official web portal to all federal, state and local government web resources and services.